Time;durP1;ratioP1;P1;durP2;ratioP2;P2;SDS_P1;SDS_P2;PMS_P1;PMS_P2;Temp;Humidity;BMP_temperature;BMP_pressure;BME280_temperature;BME280_humidity;BME280_pressure;Samples;Min_cycle;Max_cycle;Signal;HPM_P1;HPM_P2
2024/01/16 00:00:13;;;;;;;0.97;0.50;;;1.00;52.50;;;;;;6266630;28;20234;-64
2024/01/16 00:03:13;;;;;;;0.60;0.57;;;0.90;53.10;;;;;;6271684;28;20193;-64
2024/01/16 00:06:14;;;;;;;0.40;0.40;;;0.80;53.50;;;;;;6268827;28;20318;-64
2024/01/16 00:09:15;;;;;;;0.60;0.50;;;1.00;50.30;;;;;;6254455;28;20370;-64
2024/01/16 00:12:16;;;;;;;2.03;0.77;;;1.00;50.80;;;;;;6266845;28;20189;-64
2024/01/16 00:15:16;;;;;;;0.87;0.40;;;1.00;50.20;;;;;;6274152;28;20261;-64
2024/01/16 00:18:17;;;;;;;0.57;0.53;;;0.90;50.70;;;;;;6268917;28;20232;-64
2024/01/16 00:21:18;;;;;;;1.00;0.50;;;1.00;49.70;;;;;;6265689;28;20256;-64
2024/01/16 00:24:18;;;;;;;0.50;0.50;;;1.00;47.80;;;;;;6266065;28;20193;-64
2024/01/16 00:27:19;;;;;;;0.57;0.50;;;1.00;48.30;;;;;;6267668;28;20184;-64
2024/01/16 00:30:20;;;;;;;1.13;0.80;;;1.00;48.50;;;;;;6256490;28;20203;-64
2024/01/16 00:33:20;;;;;;;0.57;0.50;;;1.10;47.30;;;;;;6269896;28;20268;-64
2024/01/16 00:36:21;;;;;;;0.87;0.87;;;1.10;48.00;;;;;;6264927;28;20257;-64
2024/01/16 00:39:22;;;;;;;2.53;0.60;;;1.00;46.80;;;;;;6276819;28;20189;-64
2024/01/16 00:42:23;;;;;;;1.67;0.70;;;1.10;46.60;;;;;;6286509;28;20192;-64
2024/01/16 00:45:24;;;;;;;0.70;0.50;;;1.00;47.20;;;;;;6278414;28;20207;-64
2024/01/16 00:48:24;;;;;;;0.70;0.70;;;1.00;47.20;;;;;;6258276;28;20205;-64
2024/01/16 00:51:25;;;;;;;0.50;0.50;;;1.00;47.50;;;;;;6253204;28;20284;-68
2024/01/16 00:54:26;;;;;;;0.90;0.60;;;0.90;48.80;;;;;;6272852;28;20245;-64
2024/01/16 00:57:26;;;;;;;0.50;0.50;;;0.80;48.00;;;;;;6259662;28;20205;-65
2024/01/16 01:00:29;;;;;;;0.80;0.80;;;0.80;48.40;;;;;;6267502;28;20334;-65
2024/01/16 01:03:30;;;;;;;0.83;0.70;;;0.80;47.70;;;;;;6274896;28;20228;-65
2024/01/16 01:06:31;;;;;;;0.50;0.50;;;0.80;48.00;;;;;;6276281;28;20203;-65
2024/01/16 01:09:32;;;;;;;0.60;0.60;;;0.80;49.80;;;;;;6288306;28;20228;-65
2024/01/16 01:12:33;;;;;;;0.73;0.60;;;0.70;48.70;;;;;;6280845;28;20205;-65
2024/01/16 01:15:34;;;;;;;0.77;0.70;;;0.70;50.00;;;;;;6283937;28;20212;-65
2024/01/16 01:18:34;;;;;;;0.50;0.50;;;0.60;50.40;;;;;;6264224;28;20189;-68
2024/01/16 01:21:36;;;;;;;0.70;0.60;;;0.60;51.90;;;;;;6259654;28;20188;-64
2024/01/16 01:24:36;;;;;;;0.30;0.30;;;0.50;52.20;;;;;;6276097;28;20199;-69
2024/01/16 01:27:37;;;;;;;0.60;0.60;;;0.40;53.10;;;;;;6271767;28;20266;-69
2024/01/16 01:30:38;;;;;;;0.70;0.70;;;0.30;53.50;;;;;;6268303;28;20199;-65
2024/01/16 01:33:40;;;;;;;0.93;0.63;;;0.20;54.40;;;;;;6280341;28;20192;-64
2024/01/16 01:36:40;;;;;;;0.73;0.50;;;0.10;54.60;;;;;;6293290;28;20219;-65
2024/01/16 01:39:41;;;;;;;1.10;0.60;;;0.00;55.30;;;;;;6266741;28;20189;-63
2024/01/16 01:42:42;;;;;;;0.77;0.70;;;0.00;56.30;;;;;;6260048;28;20186;-64
2024/01/16 01:45:43;;;;;;;0.60;0.60;;;-0.10;56.10;;;;;;6276610;28;20197;-63
2024/01/16 01:48:46;;;;;;;0.80;0.80;;;-0.10;56.60;;;;;;6290887;28;20191;-63
2024/01/16 01:51:47;;;;;;;0.77;0.53;;;-0.10;57.00;;;;;;6294030;28;20203;-63
2024/01/16 01:54:48;;;;;;;0.83;0.63;;;-0.10;56.90;;;;;;6256968;28;20220;-63
2024/01/16 01:57:49;;;;;;;1.30;0.90;;;-0.10;56.50;;;;;;6273460;28;20216;-63
2024/01/16 02:00:50;;;;;;;1.30;1.20;;;-0.30;56.70;;;;;;6262269;28;20382;-63
2024/01/16 02:03:54;;;;;;;3.80;2.03;;;-0.30;57.20;;;;;;6295383;28;20181;-63
2024/01/16 02:06:56;;;;;;;4.80;2.80;;;;;;;;;;6295491;28;20195;-63
2024/01/16 02:09:57;;;;;;;5.90;3.00;;;-0.40;58.70;;;;;;6277259;28;20224;-63
2024/01/16 02:12:58;;;;;;;6.47;3.27;;;-0.50;59.40;;;;;;6259799;28;20189;-63
2024/01/16 02:15:59;;;;;;;4.97;3.83;;;-0.50;59.80;;;;;;6272119;28;20303;-63
2024/01/16 02:19:00;;;;;;;3.87;2.87;;;-0.60;60.60;;;;;;6282456;28;20300;-63
2024/01/16 02:22:07;;;;;;;4.57;2.90;;;-0.70;61.00;;;;;;6262214;28;20265;-63
2024/01/16 02:25:08;;;;;;;4.90;3.40;;;-0.70;61.10;;;;;;6295081;28;20231;-63
2024/01/16 02:28:09;;;;;;;4.97;2.97;;;-0.70;61.30;;;;;;6266100;28;20195;-63
2024/01/16 02:31:10;;;;;;;4.30;2.80;;;-0.70;61.50;;;;;;6271066;28;20184;-64
2024/01/16 02:34:11;;;;;;;4.07;2.53;;;;;;;;;;6259933;28;20185;-64
2024/01/16 02:37:12;;;;;;;6.23;3.60;;;;;;;;;;6278676;28;20210;-64
2024/01/16 02:40:13;;;;;;;5.43;2.73;;;;;;;;;;6273878;28;20187;-64
2024/01/16 02:43:14;;;;;;;3.77;2.60;;;;;;;;;;6285520;28;20265;-64
2024/01/16 02:46:15;;;;;;;2.03;1.73;;;;;;;;;;6283048;28;20325;-64
2024/01/16 02:49:16;;;;;;;3.33;1.63;;;;;;;;;;6296811;28;20673;-64
2024/01/16 02:52:17;;;;;;;2.13;1.43;;;;;;;;;;6281169;28;20188;-64
2024/01/16 02:55:19;;;;;;;2.20;1.50;;;;;;;;;;6278466;28;20278;-63
2024/01/16 02:58:21;;;;;;;1.87;1.50;;;;;;;;;;6270965;28;20232;-63
2024/01/16 03:01:22;;;;;;;1.67;1.30;;;;;;;;;;6305067;28;20194;-63
2024/01/16 03:04:23;;;;;;;1.27;1.17;;;;;;;;;;6287254;28;20192;-64
2024/01/16 03:07:24;;;;;;;2.30;1.43;;;;;;;;;;6281323;28;20242;-63
2024/01/16 03:10:25;;;;;;;2.13;1.67;;;-0.70;61.80;;;;;;6286335;28;20196;-63
2024/01/16 03:13:26;;;;;;;1.77;1.30;;;-1.10;62.00;;;;;;6261081;28;20342;-64
2024/01/16 03:16:27;;;;;;;1.47;1.10;;;-1.10;61.60;;;;;;6286427;28;20217;-63
2024/01/16 03:19:28;;;;;;;1.63;1.23;;;-1.10;61.80;;;;;;6263696;28;20194;-63
2024/01/16 03:22:29;;;;;;;2.43;1.23;;;-1.20;61.50;;;;;;6285431;28;20217;-63
2024/01/16 03:25:29;;;;;;;1.87;1.20;;;-1.20;62.30;;;;;;6291468;28;20186;-63
2024/01/16 03:28:30;;;;;;;1.20;0.97;;;-1.20;62.00;;;;;;6289365;28;20219;-63
2024/01/16 03:31:31;;;;;;;1.37;1.17;;;-1.30;62.50;;;;;;6286310;28;20247;-63
2024/01/16 03:34:31;;;;;;;1.50;1.30;;;-1.30;61.90;;;;;;6274931;28;20278;-63
2024/01/16 03:37:32;;;;;;;1.80;1.27;;;-1.30;62.60;;;;;;6279390;28;20235;-64
2024/01/16 03:40:34;;;;;;;1.27;1.13;;;;;;;;;;6275582;28;20192;-63
2024/01/16 03:43:35;;;;;;;4.73;2.20;;;;;;;;;;6288583;28;20217;-64
2024/01/16 03:46:36;;;;;;;2.03;1.80;;;;;;;;;;6296141;28;20190;-64
2024/01/16 03:49:37;;;;;;;1.73;1.10;;;;;;;;;;6294490;28;20246;-64
2024/01/16 03:52:38;;;;;;;1.77;1.30;;;;;;;;;;6300322;28;20203;-64
2024/01/16 03:55:39;;;;;;;1.40;1.30;;;;;;;;;;6287047;28;20208;-64
2024/01/16 03:58:41;;;;;;;2.17;1.20;;;;;;;;;;6281585;28;20231;-64
2024/01/16 04:01:44;;;;;;;2.40;1.53;;;;;;;;;;6308341;28;20656;-64
2024/01/16 04:04:45;;;;;;;2.27;1.63;;;;;;;;;;6294211;28;20191;-64
2024/01/16 04:07:46;;;;;;;1.63;1.17;;;;;;;;;;6292022;28;20275;-63
2024/01/16 04:10:47;;;;;;;2.93;1.90;;;;;;;;;;6281429;28;20231;-64
2024/01/16 04:13:49;;;;;;;3.20;2.20;;;;;;;;;;6278269;28;20215;-64
2024/01/16 04:16:50;;;;;;;2.00;1.80;;;;;;;;;;6307681;28;20234;-64
2024/01/16 04:19:51;;;;;;;2.87;1.90;;;;;;;;;;6306244;28;20218;-64
2024/01/16 04:22:52;;;;;;;2.17;1.83;;;;;;;;;;6307362;28;20223;-64
2024/01/16 04:25:53;;;;;;;3.07;2.30;;;;;;;;;;6289832;28;20195;-64
2024/01/16 04:28:54;;;;;;;2.07;1.80;;;;;;;;;;6292042;28;20202;-64
2024/01/16 04:31:56;;;;;;;5.37;2.00;;;;;;;;;;6285498;28;20194;-65
2024/01/16 04:34:57;;;;;;;3.13;1.80;;;;;;;;;;6287208;28;20206;-65
2024/01/16 04:37:58;;;;;;;2.37;1.93;;;;;;;;;;6275203;28;20247;-65
2024/01/16 04:41:01;;;;;;;1.57;1.40;;;;;;;;;;6273104;28;20202;-65
2024/01/16 04:44:02;;;;;;;3.17;1.97;;;;;;;;;;6321310;28;20217;-64
2024/01/16 04:47:04;;;;;;;3.53;1.57;;;;;;;;;;6283709;28;20193;-64
2024/01/16 04:50:04;;;;;;;1.77;1.37;;;-1.30;62.90;;;;;;6291393;28;20182;-64
2024/01/16 04:53:05;;;;;;;1.90;1.27;;;-1.90;63.90;;;;;;6269998;28;20192;-64
2024/01/16 04:56:06;;;;;;;4.67;1.60;;;-1.80;63.90;;;;;;6271963;28;20222;-64
2024/01/16 04:59:07;;;;;;;3.33;1.30;;;-1.80;63.20;;;;;;6267329;28;20271;-64
2024/01/16 05:02:07;;;;;;;2.40;1.70;;;-1.80;63.60;;;;;;6289810;28;20255;-64
2024/01/16 05:05:08;;;;;;;3.23;1.67;;;-1.80;64.00;;;;;;6260124;28;20187;-64
2024/01/16 05:08:09;;;;;;;2.30;1.40;;;-1.80;64.00;;;;;;6259118;28;20196;-63
2024/01/16 05:11:10;;;;;;;2.63;2.00;;;-1.80;63.40;;;;;;6276467;28;20203;-64
2024/01/16 05:14:10;;;;;;;3.63;1.47;;;-1.90;63.80;;;;;;6279309;28;20220;-64
2024/01/16 05:17:11;;;;;;;4.47;1.87;;;-1.90;64.30;;;;;;6297420;28;20213;-65
2024/01/16 05:20:12;;;;;;;3.37;1.70;;;-1.90;63.90;;;;;;6269431;28;20199;-64
2024/01/16 05:23:13;;;;;;;3.93;2.43;;;-1.90;64.10;;;;;;6290261;28;20196;-68
2024/01/16 05:26:13;;;;;;;1.87;1.33;;;-2.00;64.00;;;;;;6283382;28;20191;-68
2024/01/16 05:29:14;;;;;;;2.10;1.50;;;-2.10;64.50;;;;;;6269462;28;20197;-68
2024/01/16 05:32:15;;;;;;;3.37;2.10;;;-2.00;64.50;;;;;;6302834;28;20214;-71
2024/01/16 05:35:17;;;;;;;1.47;1.37;;;-2.00;64.30;;;;;;6269268;28;20189;-68
2024/01/16 05:38:18;;;;;;;1.93;1.30;;;-2.10;64.40;;;;;;6266212;28;20194;-68
2024/01/16 05:41:18;;;;;;;1.90;1.70;;;-2.10;64.40;;;;;;6270286;28;20224;-68
2024/01/16 05:44:19;;;;;;;4.80;2.07;;;-2.10;64.10;;;;;;6276173;28;20233;-68
2024/01/16 05:47:20;;;;;;;2.30;2.10;;;-2.20;63.80;;;;;;6274216;28;20195;-68
2024/01/16 05:50:20;;;;;;;3.20;2.10;;;-2.30;64.40;;;;;;6266536;28;20202;-66
2024/01/16 05:53:21;;;;;;;3.30;1.97;;;-2.30;64.60;;;;;;6269717;28;20190;-66
2024/01/16 05:56:22;;;;;;;2.67;1.80;;;-2.30;65.40;;;;;;6288435;28;20334;-66
2024/01/16 05:59:22;;;;;;;2.33;1.70;;;-2.30;65.50;;;;;;6272960;28;20245;-66
2024/01/16 06:02:24;;;;;;;2.33;1.93;;;-2.30;65.50;;;;;;6259862;28;20227;-66
2024/01/16 06:05:25;;;;;;;3.70;3.30;;;-2.40;65.20;;;;;;6282230;28;20282;-66
2024/01/16 06:08:25;;;;;;;3.77;2.00;;;-2.40;65.80;;;;;;6273954;28;20219;-66
2024/01/16 06:11:30;;;;;;;2.83;1.70;;;-2.40;65.60;;;;;;6263509;28;20192;-66
2024/01/16 06:14:31;;;;;;;2.40;1.80;;;-2.40;65.80;;;;;;6282646;28;20214;-66
2024/01/16 06:17:32;;;;;;;2.57;1.90;;;-2.50;65.50;;;;;;6252160;28;20223;-66
2024/01/16 06:20:33;;;;;;;2.73;1.73;;;-2.50;65.90;;;;;;6258780;28;20234;-66
2024/01/16 06:23:34;;;;;;;4.30;3.13;;;-2.50;65.90;;;;;;6282638;28;20767;-66
2024/01/16 06:26:34;;;;;;;6.47;3.13;;;24.00;50.00;;;;;;6272997;28;20205;-66
2024/01/16 06:29:35;;;;;;;5.10;3.00;;;-2.60;66.90;;;;;;6272118;28;20197;-66
2024/01/16 06:32:36;;;;;;;4.27;2.90;;;-2.60;66.60;;;;;;6299293;28;20193;-66
2024/01/16 06:35:36;;;;;;;5.83;3.10;;;-2.60;66.50;;;;;;6273765;28;20214;-66
2024/01/16 06:38:39;;;;;;;5.97;3.27;;;-2.60;66.50;;;;;;6267820;28;20210;-66
2024/01/16 06:41:43;;;;;;;4.87;2.80;;;-2.60;66.70;;;;;;6304558;28;20244;-66
2024/01/16 06:44:44;;;;;;;3.43;2.70;;;-2.70;66.70;;;;;;6283480;28;20187;-65
2024/01/16 06:47:45;;;;;;;3.33;2.07;;;-2.70;66.80;;;;;;6265662;28;20249;-65
2024/01/16 06:50:45;;;;;;;4.67;2.80;;;-2.60;67.20;;;;;;6265243;28;20258;-66
2024/01/16 06:53:46;;;;;;;3.77;2.73;;;-2.70;66.50;;;;;;6290509;28;20190;-65
2024/01/16 06:56:48;;;;;;;3.27;2.37;;;-2.70;66.40;;;;;;6263431;28;20339;-65
2024/01/16 06:59:49;;;;;;;3.17;2.30;;;-2.80;67.30;;;;;;6251273;28;20239;-65
2024/01/16 07:02:51;;;;;;;5.00;2.40;;;-2.70;67.30;;;;;;6254296;28;20186;-65
2024/01/16 07:05:51;;;;;;;5.27;2.47;;;-2.70;67.00;;;;;;6284205;28;20194;-65
2024/01/16 07:08:53;;;;;;;3.10;2.70;;;-2.70;66.50;;;;;;6261698;28;20190;-63
2024/01/16 07:11:54;;;;;;;6.97;3.93;;;-2.80;67.00;;;;;;6263943;28;20199;-64
2024/01/16 07:14:55;;;;;;;6.53;4.10;;;-2.70;66.80;;;;;;6282741;28;20279;-63
2024/01/16 07:17:55;;;;;;;5.80;3.43;;;-2.70;67.00;;;;;;6269291;28;20222;-63
2024/01/16 07:20:56;;;;;;;11.90;3.87;;;-2.70;67.20;;;;;;6289336;28;20238;-63
2024/01/16 07:23:57;;;;;;;5.77;3.37;;;-2.60;67.30;;;;;;6263754;28;20197;-63
2024/01/16 07:26:58;;;;;;;7.27;4.30;;;-2.60;67.70;;;;;;6290455;28;20202;-63
2024/01/16 07:29:59;;;;;;;5.87;3.80;;;-2.70;66.70;;;;;;6270387;28;20194;-63
2024/01/16 07:32:59;;;;;;;8.10;5.60;;;-2.70;67.10;;;;;;6263955;28;20191;-63
2024/01/16 07:36:00;;;;;;;9.87;4.93;;;-2.70;67.60;;;;;;6253313;28;20222;-63
2024/01/16 07:39:01;;;;;;;5.43;3.67;;;-2.80;67.70;;;;;;6289450;28;20190;-63
2024/01/16 07:42:02;;;;;;;4.23;3.60;;;-2.80;67.60;;;;;;6265511;28;20216;-63
2024/01/16 07:45:04;;;;;;;5.77;2.80;;;-2.70;67.90;;;;;;6285215;28;20225;-63
2024/01/16 07:48:05;;;;;;;7.03;4.47;;;-2.60;67.60;;;;;;6282964;28;20198;-63
2024/01/16 07:51:06;;;;;;;7.10;4.07;;;-2.60;67.80;;;;;;6281003;28;20190;-63
2024/01/16 07:54:08;;;;;;;4.73;3.83;;;-2.60;67.70;;;;;;6257178;28;20201;-63
2024/01/16 07:57:09;;;;;;;4.53;3.60;;;-2.60;67.90;;;;;;6288082;28;20211;-63
2024/01/16 08:00:13;;;;;;;5.67;3.73;;;-2.60;68.00;;;;;;6271755;28;20287;-63
2024/01/16 08:03:14;;;;;;;7.07;3.50;;;-2.50;67.80;;;;;;6270274;28;20275;-63
2024/01/16 08:06:15;;;;;;;5.37;3.87;;;-2.40;67.90;;;;;;6290366;28;20236;-63
2024/01/16 08:09:15;;;;;;;7.90;4.77;;;-2.30;67.70;;;;;;6273160;28;20207;-63
2024/01/16 08:12:16;;;;;;;5.73;4.10;;;-2.30;67.50;;;;;;6281648;28;20192;-63
2024/01/16 08:15:17;;;;;;;5.17;3.37;;;-2.30;68.00;;;;;;6297952;28;20240;-63
2024/01/16 08:18:17;;;;;;;7.43;3.20;;;-2.40;68.10;;;;;;6270318;28;20191;-63
2024/01/16 08:21:18;;;;;;;5.53;3.07;;;-2.30;67.70;;;;;;6270476;28;20188;-63
2024/01/16 08:24:19;;;;;;;4.37;3.20;;;-2.30;67.70;;;;;;6277326;28;20189;-63
2024/01/16 08:27:20;;;;;;;11.17;3.63;;;-2.20;67.70;;;;;;6282819;28;20194;-63
2024/01/16 08:30:20;;;;;;;3.90;2.87;;;-2.10;67.70;;;;;;6270659;28;20188;-63
2024/01/16 08:33:21;;;;;;;3.43;2.73;;;-2.10;67.40;;;;;;6264306;28;20199;-63
2024/01/16 08:36:22;;;;;;;5.07;2.50;;;-2.10;67.00;;;;;;6284655;28;20273;-63
2024/01/16 08:39:27;;;;;;;5.57;2.83;;;-2.00;67.20;;;;;;6274236;28;20230;-63
2024/01/16 08:42:28;;;;;;;4.43;2.90;;;-1.90;65.90;;;;;;6276981;28;20267;-63
2024/01/16 08:45:29;;;;;;;5.10;3.23;;;-1.80;66.50;;;;;;6269800;28;20228;-63
2024/01/16 08:48:30;;;;;;;4.93;3.00;;;-1.80;66.90;;;;;;6281547;28;20273;-63
2024/01/16 08:51:31;;;;;;;3.90;2.53;;;-1.70;66.50;;;;;;6287940;28;20187;-63
2024/01/16 08:54:32;;;;;;;5.83;4.00;;;-1.70;66.00;;;;;;6284478;28;20188;-63
2024/01/16 08:57:32;;;;;;;6.93;5.00;;;-1.60;65.50;;;;;;6284063;28;20217;-63
2024/01/16 09:00:33;;;;;;;7.37;4.40;;;-1.50;65.80;;;;;;6273419;28;20238;-63
2024/01/16 09:03:34;;;;;;;8.23;4.47;;;-1.50;65.30;;;;;;6264831;28;20199;-63
2024/01/16 09:06:35;;;;;;;7.10;4.47;;;-1.40;65.50;;;;;;6305525;28;20191;-63
2024/01/16 09:09:36;;;;;;;7.77;3.53;;;-1.30;65.10;;;;;;6267693;28;20275;-63
2024/01/16 09:12:36;;;;;;;6.50;3.67;;;-1.30;64.80;;;;;;6297599;28;20190;-63
2024/01/16 09:15:37;;;;;;;6.00;3.13;;;-1.30;64.80;;;;;;6274228;28;20215;-63
2024/01/16 09:18:37;;;;;;;4.80;2.80;;;-1.20;64.80;;;;;;6269136;28;20242;-63
2024/01/16 09:21:38;;;;;;;4.23;2.60;;;-1.10;64.20;;;;;;6274847;28;20223;-63
2024/01/16 09:24:39;;;;;;;6.63;3.53;;;-1.10;63.90;;;;;;6274897;28;20212;-63
2024/01/16 09:27:40;;;;;;;10.77;3.53;;;-1.00;63.20;;;;;;6269840;28;20212;-63
2024/01/16 09:30:42;;;;;;;7.00;3.43;;;-0.90;63.50;;;;;;6270161;28;20217;-63
2024/01/16 09:33:43;;;;;;;5.87;3.70;;;-0.80;63.40;;;;;;6288810;28;20283;-64
2024/01/16 09:36:44;;;;;;;5.87;3.73;;;-0.70;63.60;;;;;;6283851;28;20329;-64
2024/01/16 09:39:44;;;;;;;5.70;3.57;;;-0.70;63.20;;;;;;6289351;28;20193;-63
2024/01/16 09:42:45;;;;;;;4.60;2.70;;;-0.70;63.20;;;;;;6266838;28;20189;-63
2024/01/16 09:45:48;;;;;;;6.13;2.67;;;-0.60;61.90;;;;;;6282139;28;20193;-63
2024/01/16 09:48:52;;;;;;;5.40;3.17;;;-0.50;61.20;;;;;;6305779;28;20275;-63
2024/01/16 09:51:53;;;;;;;4.03;2.23;;;-0.40;58.90;;;;;;6300345;28;20189;-63
2024/01/16 09:54:54;;;;;;;5.00;2.37;;;-0.20;58.20;;;;;;6289413;28;20283;-63
2024/01/16 09:57:55;;;;;;;4.50;2.50;;;-0.10;58.00;;;;;;6288627;28;20201;-64
2024/01/16 10:00:57;;;;;;;5.43;2.50;;;-0.10;57.90;;;;;;6267900;28;20201;-63
2024/01/16 10:03:59;;;;;;;2.47;2.10;;;0.00;54.60;;;;;;6268140;28;20204;-64
2024/01/16 10:07:02;;;;;;;2.93;1.97;;;0.10;54.50;;;;;;6306693;28;20199;-63
2024/01/16 10:10:03;;;;;;;3.10;1.57;;;0.20;55.00;;;;;;6286013;28;20217;-63
2024/01/16 10:13:04;;;;;;;1.73;1.60;;;0.20;55.80;;;;;;6274474;28;20283;-63
2024/01/16 10:16:05;;;;;;;2.70;1.77;;;0.20;56.60;;;;;;6278644;28;20212;-63
2024/01/16 10:19:06;;;;;;;3.43;1.63;;;0.20;57.20;;;;;;6270940;28;20181;-63
2024/01/16 10:22:06;;;;;;;2.10;1.33;;;0.30;54.50;;;;;;6270437;28;20186;-63
2024/01/16 10:25:08;;;;;;;2.87;1.80;;;0.40;52.20;;;;;;6278048;28;20192;-63
2024/01/16 10:28:11;;;;;;;3.63;1.63;;;0.40;53.70;;;;;;6304823;28;20188;-64
2024/01/16 10:31:16;;;;;;;3.23;2.10;;;0.50;54.30;;;;;;6280167;28;20300;-64
2024/01/16 10:34:23;;;;;;;2.90;2.10;;;0.60;51.90;;;;;;6305502;28;20187;-64
2024/01/16 10:37:24;;;;;;;6.13;1.80;;;0.80;49.90;;;;;;6295402;28;20233;-65
2024/01/16 10:40:25;;;;;;;2.23;1.60;;;0.80;48.90;;;;;;6260896;28;20321;-65
2024/01/16 10:43:26;;;;;;;2.03;1.60;;;0.80;50.00;;;;;;6260926;28;20199;-65
2024/01/16 10:46:26;;;;;;;1.30;1.20;;;0.90;50.10;;;;;;6268545;28;20202;-65
2024/01/16 10:49:27;;;;;;;1.67;1.40;;;0.90;49.90;;;;;;6272462;28;20266;-64
2024/01/16 10:52:28;;;;;;;3.17;1.83;;;1.00;50.50;;;;;;6264166;28;20185;-64
2024/01/16 10:55:32;;;;;;;3.37;1.67;;;1.00;51.10;;;;;;6264869;28;20204;-64
2024/01/16 10:58:34;;;;;;;2.33;1.53;;;1.00;50.80;;;;;;6304206;28;20254;-64
2024/01/16 11:01:35;;;;;;;4.37;1.20;;;1.10;48.50;;;;;;6277888;28;20188;-64
2024/01/16 11:04:37;;;;;;;1.73;1.00;;;1.20;48.70;;;;;;6289676;28;20200;-64
2024/01/16 11:07:40;;;;;;;3.30;1.63;;;1.30;48.50;;;;;;6267275;28;20344;-64
2024/01/16 11:10:41;;;;;;;3.97;1.70;;;;;;;;;;6280014;28;20206;-64
2024/01/16 11:13:44;;;;;;;2.17;1.50;;;;;;;;;;6282558;28;20188;-64
2024/01/16 11:16:47;;;;;;;2.13;1.63;;;1.40;47.00;;;;;;6305869;28;20196;-64
2024/01/16 11:19:48;;;;;;;1.57;1.33;;;1.90;43.90;;;;;;6283770;28;20196;-64
2024/01/16 11:22:50;;;;;;;2.67;1.53;;;1.90;44.90;;;;;;6288607;28;20192;-64
2024/01/16 11:25:51;;;;;;;3.60;1.73;;;1.90;45.90;;;;;;6268646;28;20184;-64
2024/01/16 11:28:53;;;;;;;6.20;2.23;;;1.90;45.70;;;;;;6302004;28;20199;-63
2024/01/16 11:31:56;;;;;;;3.03;1.50;;;2.10;43.70;;;;;;6262270;28;20249;-64
2024/01/16 11:34:57;;;;;;;1.77;1.50;;;2.20;43.50;;;;;;6287205;28;20188;-64
2024/01/16 11:38:08;;;;;;;3.87;1.20;;;2.20;43.70;;;;;;6271781;28;20207;-64
2024/01/16 11:41:09;;;;;;;2.30;1.43;;;;;;;;;;6293690;28;20339;-64
2024/01/16 11:44:30;;;;;;;2.13;1.90;;;;;;;;;;6284174;28;20193;-63
2024/01/16 11:47:31;;;;;;;2.47;1.57;;;2.30;43.40;;;;;;6309400;28;20189;-64
2024/01/16 11:50:32;;;;;;;3.43;1.80;;;;;;;;;;6286393;28;20250;-63
2024/01/16 11:53:40;;;;;;;2.10;1.80;;;;;;;;;;6290300;28;20420;-65
2024/01/16 11:56:54;;;;;;;2.43;1.83;;;;;;;;;;6304738;28;20209;-64
2024/01/16 12:00:12;;;;;;;4.27;2.13;;;;;;;;;;6307570;28;20236;-64
2024/01/16 12:03:16;;;;;;;8.33;2.30;;;;;;;;;;6295340;28;20321;-64
2024/01/16 12:06:17;;;;;;;2.73;2.10;;;;;;;;;;6308774;28;20210;-64
2024/01/16 12:09:18;;;;;;;3.70;2.40;;;;;;;;;;6293339;28;20214;-61
2024/01/16 12:12:20;;;;;;;7.97;2.60;;;;;;;;;;6288022;28;20197;-60
2024/01/16 12:15:22;;;;;;;7.07;2.43;;;;;;;;;;6289889;28;20301;-61
2024/01/16 12:18:23;;;;;;;4.33;2.00;;;;;;;;;;6289285;28;20180;-61
2024/01/16 12:21:24;;;;;;;4.40;2.27;;;;;;;;;;6292756;28;20184;-61
2024/01/16 12:24:25;;;;;;;3.47;2.30;;;;;;;;;;6301962;28;20270;-62
2024/01/16 12:27:26;;;;;;;2.20;1.40;;;;;;;;;;6292482;28;20271;-62
2024/01/16 12:30:28;;;;;;;3.67;1.70;;;;;;;;;;6286620;28;20635;-62
2024/01/16 12:33:30;;;;;;;3.03;1.73;;;;;;;;;;6297277;28;20196;-62
2024/01/16 12:36:31;;;;;;;3.37;1.70;;;;;;;;;;6305638;28;20236;-62
2024/01/16 12:39:32;;;;;;;2.30;1.37;;;;;;;;;;6286140;28;20189;-62
2024/01/16 12:42:33;;;;;;;2.80;1.83;;;;;;;;;;6285653;28;20188;-61
2024/01/16 12:45:34;;;;;;;2.17;1.50;;;;;;;;;;6282025;28;20215;-61
2024/01/16 12:48:36;;;;;;;2.50;2.07;;;;;;;;;;6286820;28;20192;-61
2024/01/16 12:51:37;;;;;;;3.53;2.30;;;;;;;;;;6306821;28;20276;-61
2024/01/16 12:54:39;;;;;;;2.97;1.97;;;;;;;;;;6290344;28;20202;-61
2024/01/16 12:57:40;;;;;;;3.77;2.30;;;;;;;;;;6281737;28;20287;-61
2024/01/16 13:00:41;;;;;;;2.97;2.00;;;;;;;;;;6301682;28;20232;-61
2024/01/16 13:03:42;;;;;;;2.60;1.80;;;;;;;;;;6282577;28;20282;-61
2024/01/16 13:06:43;;;;;;;3.97;1.93;;;;;;;;;;6287835;28;20201;-61
2024/01/16 13:09:44;;;;;;;2.17;1.60;;;;;;;;;;6306311;28;20195;-62
2024/01/16 13:12:45;;;;;;;1.90;1.50;;;;;;;;;;6301458;28;20192;-61
2024/01/16 13:15:47;;;;;;;2.20;1.67;;;;;;;;;;6285372;28;20209;-61
2024/01/16 13:19:01;;;;;;;2.53;1.60;;;;;;;;;;6303442;28;20185;-62
2024/01/16 13:22:03;;;;;;;3.37;2.20;;;;;;;;;;6305329;28;20186;-61
2024/01/16 13:25:05;;;;;;;3.03;2.00;;;;;;;;;;6289553;28;20273;-61
2024/01/16 13:28:07;;;;;;;2.10;1.90;;;;;;;;;;6286337;28;20242;-61
2024/01/16 13:31:08;;;;;;;2.77;1.70;;;;;;;;;;6281598;28;20190;-61
2024/01/16 13:34:09;;;;;;;2.90;1.77;;;;;;;;;;6286875;28;20276;-61
2024/01/16 13:37:10;;;;;;;3.63;2.00;;;;;;;;;;6285631;28;20342;-62
2024/01/16 13:40:15;;;;;;;2.20;1.47;;;;;;;;;;6310244;28;20267;-62
2024/01/16 13:43:16;;;;;;;2.40;1.57;;;;;;;;;;6292097;28;20193;-62
2024/01/16 13:46:17;;;;;;;1.97;1.60;;;;;;;;;;6284868;28;20243;-61
2024/01/16 13:49:18;;;;;;;1.77;1.40;;;;;;;;;;6287582;28;20203;-61
2024/01/16 13:52:19;;;;;;;3.03;1.80;;;;;;;;;;6293726;28;20199;-61
2024/01/16 13:55:21;;;;;;;2.67;2.00;;;;;;;;;;6296238;28;20189;-62
2024/01/16 13:58:22;;;;;;;3.73;2.73;;;;;;;;;;6283260;28;20229;-62
2024/01/16 14:01:23;;;;;;;3.73;2.00;;;;;;;;;;6267702;28;20185;-62
2024/01/16 14:04:24;;;;;;;2.77;2.03;;;;;;;;;;6286748;28;20227;-62
2024/01/16 14:07:25;;;;;;;2.73;1.90;;;;;;;;;;6288390;28;20192;-62
2024/01/16 14:10:26;;;;;;;2.70;2.50;;;;;;;;;;6289979;28;20188;-62
2024/01/16 14:13:27;;;;;;;3.40;2.07;;;5.60;38.60;;;;;;6286967;28;20193;-62
2024/01/16 14:16:31;;;;;;;2.93;2.27;;;5.40;39.20;;;;;;6281029;28;20694;-62
2024/01/16 14:19:34;;;;;;;2.50;2.30;;;5.30;39.60;;;;;;6273099;28;20204;-62
2024/01/16 14:22:34;;;;;;;3.50;1.97;;;5.00;40.10;;;;;;6304447;28;20216;-62
2024/01/16 14:25:35;;;;;;;2.33;1.90;;;4.70;41.30;;;;;;6269191;28;20250;-61
2024/01/16 14:28:36;;;;;;;2.77;1.97;;;4.50;41.90;;;;;;6284820;28;20276;-62
2024/01/16 14:31:37;;;;;;;3.07;2.23;;;4.40;42.30;;;;;;6263181;28;20253;-62
2024/01/16 14:34:38;;;;;;;3.10;2.07;;;4.20;42.60;;;;;;6266398;28;20185;-61
2024/01/16 14:37:43;;;;;;;3.80;2.13;;;4.10;42.80;;;;;;6268880;28;20300;-61
2024/01/16 14:40:44;;;;;;;3.83;2.40;;;4.10;43.50;;;;;;6295205;28;20224;-62
2024/01/16 14:43:45;;;;;;;4.03;2.30;;;4.10;44.00;;;;;;6258036;28;20184;-61
2024/01/16 14:46:46;;;;;;;3.57;2.53;;;4.10;44.80;;;;;;6284658;28;20199;-62
2024/01/16 14:49:48;;;;;;;4.37;2.70;;;4.20;44.90;;;;;;6267980;28;20224;-61
2024/01/16 14:52:49;;;;;;;4.00;2.60;;;4.20;45.10;;;;;;6273548;28;20219;-61
2024/01/16 14:55:51;;;;;;;3.73;2.90;;;4.20;45.50;;;;;;6288822;28;20218;-62
2024/01/16 14:58:52;;;;;;;3.83;2.60;;;4.10;45.60;;;;;;6265154;28;20233;-61
2024/01/16 15:01:54;;;;;;;4.27;2.97;;;4.10;46.10;;;;;;6274765;28;20217;-61
2024/01/16 15:04:55;;;;;;;4.57;3.47;;;4.00;46.60;;;;;;6252962;28;20198;-61
2024/01/16 15:07:55;;;;;;;6.13;3.77;;;3.90;47.20;;;;;;6259217;28;20197;-61
2024/01/16 15:10:56;;;;;;;5.20;3.60;;;3.90;47.70;;;;;;6268389;28;20185;-61
2024/01/16 15:13:57;;;;;;;6.00;3.17;;;3.70;48.00;;;;;;6262089;28;20334;-61
2024/01/16 15:16:58;;;;;;;5.70;3.70;;;3.60;48.50;;;;;;6270672;28;20216;-61
2024/01/16 15:19:59;;;;;;;4.57;3.43;;;3.50;49.00;;;;;;6300048;28;20180;-61
2024/01/16 15:23:00;;;;;;;5.00;3.43;;;3.30;49.70;;;;;;6265141;28;20219;-61
2024/01/16 15:26:03;;;;;;;5.13;3.43;;;3.20;50.20;;;;;;6255441;28;20185;-61
2024/01/16 15:29:04;;;;;;;5.33;3.83;;;3.00;50.80;;;;;;6279994;28;20231;-61
2024/01/16 15:32:06;;;;;;;4.57;3.67;;;2.90;51.10;;;;;;6258644;28;20188;-61
2024/01/16 15:35:07;;;;;;;5.57;3.73;;;2.70;52.00;;;;;;6267877;28;20192;-61
2024/01/16 15:38:10;;;;;;;4.70;3.23;;;;;;;;;;6270025;28;20220;-61
2024/01/16 15:41:11;;;;;;;5.00;3.50;;;2.50;52.60;;;;;;6294409;28;20196;-61
2024/01/16 15:44:13;;;;;;;4.80;3.30;;;2.30;53.20;;;;;;6266867;28;20187;-61
2024/01/16 15:47:13;;;;;;;5.53;3.90;;;2.20;53.80;;;;;;6295115;28;20188;-61
2024/01/16 15:50:14;;;;;;;5.77;4.00;;;2.10;54.10;;;;;;6264952;28;20203;-61
2024/01/16 15:53:15;;;;;;;4.17;3.60;;;1.90;55.00;;;;;;6281845;28;20242;-61
2024/01/16 15:56:16;;;;;;;5.83;3.60;;;1.80;55.10;;;;;;6267253;28;20209;-61
2024/01/16 15:59:16;;;;;;;5.43;3.77;;;1.70;55.70;;;;;;6274490;28;20247;-61
2024/01/16 16:02:17;;;;;;;5.37;3.70;;;1.60;55.90;;;;;;6264342;28;20188;-61
2024/01/16 16:05:18;;;;;;;6.60;3.67;;;1.50;56.70;;;;;;6287188;28;20180;-62
2024/01/16 16:08:20;;;;;;;5.63;3.77;;;1.40;56.50;;;;;;6285978;28;20192;-63
2024/01/16 16:11:21;;;;;;;5.73;3.67;;;1.40;57.10;;;;;;6282799;28;20196;-63
2024/01/16 16:14:22;;;;;;;9.67;3.90;;;1.20;57.20;;;;;;6260162;28;20226;-63
2024/01/16 16:17:22;;;;;;;6.70;4.10;;;1.20;58.00;;;;;;6253124;28;20265;-63
2024/01/16 16:20:24;;;;;;;7.43;4.47;;;1.10;57.90;;;;;;6269161;28;20190;-63
2024/01/16 16:23:25;;;;;;;7.03;4.63;;;;;;;;;;6280271;28;20204;-63